createdAt,value
2019-05-26T00:00:31.158Z,36.80
2019-05-26T00:01:32.672Z,36.85
2019-05-26T00:02:34.073Z,36.87
2019-05-26T00:03:35.537Z,36.92
2019-05-26T00:04:36.915Z,36.84
2019-05-26T00:05:38.320Z,36.83
2019-05-26T00:06:39.698Z,36.86
2019-05-26T00:07:41.103Z,36.94
2019-05-26T00:08:42.625Z,36.99
2019-05-26T00:09:44.143Z,37.01
2019-05-26T00:10:45.558Z,37.07
2019-05-26T00:11:46.968Z,37.08
2019-05-26T00:12:48.381Z,37.04
2019-05-26T00:13:50.053Z,37.05
2019-05-26T00:14:52.047Z,37.08
2019-05-26T00:15:53.629Z,37.03
2019-05-26T00:16:55.511Z,37.06
2019-05-26T00:17:56.912Z,37.02
2019-05-26T00:18:58.485Z,37.04
2019-05-26T00:19:59.901Z,37.07
2019-05-26T00:21:01.346Z,37.08
2019-05-26T00:22:02.760Z,37.13
2019-05-26T00:23:04.166Z,37.13
2019-05-26T00:24:05.607Z,37.16
2019-05-26T00:25:07.384Z,37.12
2019-05-26T00:26:09.077Z,37.20
2019-05-26T00:27:10.529Z,37.14
2019-05-26T00:28:12.218Z,37.08
2019-05-26T00:29:13.632Z,37.12
2019-05-26T00:30:15.122Z,37.13
2019-05-26T00:31:16.509Z,37.05
2019-05-26T00:32:19.001Z,37.04
2019-05-26T00:33:20.391Z,37.04
2019-05-26T00:34:22.046Z,37.01
2019-05-26T00:35:23.424Z,37.03
2019-05-26T00:36:24.929Z,36.99
2019-05-26T00:37:26.304Z,36.99
2019-05-26T00:38:27.708Z,36.97
2019-05-26T00:39:29.253Z,37.00
2019-05-26T00:40:30.792Z,37.02
2019-05-26T00:41:32.132Z,36.99
2019-05-26T00:42:33.521Z,37.04
2019-05-26T00:43:34.917Z,37.00
2019-05-26T00:44:36.457Z,37.09
2019-05-26T00:45:38.122Z,37.07
2019-05-26T00:46:39.696Z,37.09
2019-05-26T00:47:41.071Z,37.06
2019-05-26T00:48:42.472Z,37.06
2019-05-26T00:49:43.889Z,37.09
2019-05-26T00:50:45.275Z,37.09
2019-05-26T00:51:46.668Z,37.14
2019-05-26T00:52:48.159Z,37.19
2019-05-26T00:53:49.545Z,37.18
2019-05-26T00:54:51.170Z,37.21
2019-05-26T00:55:52.646Z,37.22
2019-05-26T00:56:54.041Z,37.26
2019-05-26T00:57:55.492Z,37.27
2019-05-26T00:58:56.977Z,37.25
2019-05-26T00:59:58.403Z,37.25
2019-05-26T01:01:00.882Z,37.28
2019-05-26T01:02:02.327Z,37.35
2019-05-26T01:03:07.784Z,37.29
2019-05-26T01:04:09.228Z,37.33
2019-05-26T01:05:10.829Z,37.27
2019-05-26T01:06:12.205Z,37.29
2019-05-26T01:07:17.780Z,37.30
2019-05-26T01:08:19.153Z,37.29
2019-05-26T01:09:20.550Z,37.34
2019-05-26T01:10:21.967Z,37.37
2019-05-26T01:11:23.382Z,37.31
2019-05-26T01:12:24.788Z,37.36
2019-05-26T01:13:26.201Z,37.33
2019-05-26T01:14:27.617Z,37.37
2019-05-26T01:15:29.123Z,37.31
2019-05-26T01:16:30.591Z,37.34
2019-05-26T01:17:32.176Z,37.33
2019-05-26T01:18:33.548Z,37.32
2019-05-26T01:19:35.063Z,37.29
2019-05-26T01:20:36.616Z,37.28
2019-05-26T01:21:38.034Z,37.29
2019-05-26T01:22:39.445Z,37.27
2019-05-26T01:23:40.857Z,37.27
2019-05-26T01:24:42.537Z,37.33
2019-05-26T01:25:44.132Z,37.33
2019-05-26T01:26:45.497Z,37.28
2019-05-26T01:27:47.097Z,37.31
2019-05-26T01:28:48.661Z,37.34
2019-05-26T01:29:50.148Z,37.33
2019-05-26T01:30:51.570Z,37.30
2019-05-26T01:31:52.962Z,37.30
2019-05-26T01:32:54.448Z,37.31
2019-05-26T01:33:55.842Z,37.27
2019-05-26T01:34:57.233Z,37.24
2019-05-26T01:35:59.065Z,37.28
2019-05-26T01:37:00.736Z,37.34
2019-05-26T01:38:02.738Z,37.34
2019-05-26T01:39:05.909Z,37.30
2019-05-26T01:40:07.709Z,37.36
2019-05-26T01:41:09.234Z,37.31
2019-05-26T01:42:10.627Z,37.30
2019-05-26T01:43:12.221Z,37.35
2019-05-26T01:44:13.609Z,37.38
2019-05-26T01:45:14.989Z,37.37
2019-05-26T01:46:16.420Z,37.35
2019-05-26T01:47:17.903Z,37.32
2019-05-26T01:48:19.912Z,37.33
2019-05-26T01:49:21.288Z,37.30
2019-05-26T01:50:23.690Z,37.33
2019-05-26T01:51:25.206Z,37.34
2019-05-26T01:52:26.600Z,37.41
2019-05-26T01:53:27.984Z,37.43
2019-05-26T01:54:29.379Z,37.46
2019-05-26T01:55:30.780Z,37.43
2019-05-26T01:56:32.198Z,37.48
2019-05-26T01:57:33.568Z,37.49
2019-05-26T01:58:35.057Z,37.44
2019-05-26T01:59:36.606Z,37.44
2019-05-26T02:00:38.014Z,37.41
2019-05-26T02:01:39.499Z,37.41
2019-05-26T02:02:41.961Z,37.42
2019-05-26T02:03:43.355Z,37.46
2019-05-26T02:04:44.736Z,37.51
2019-05-26T02:05:46.239Z,37.49
2019-05-26T02:06:47.905Z,37.49
2019-05-26T02:07:49.519Z,37.52
2019-05-26T02:08:50.927Z,37.52
2019-05-26T02:09:52.333Z,37.49
2019-05-26T02:10:53.745Z,37.48
2019-05-26T02:11:55.313Z,37.43
2019-05-26T02:12:57.784Z,37.42
2019-05-26T02:13:59.277Z,37.47
2019-05-26T02:15:00.651Z,37.50
2019-05-26T02:16:02.050Z,37.46
2019-05-26T02:17:03.842Z,37.46
2019-05-26T02:18:05.246Z,37.41
2019-05-26T02:19:06.650Z,37.38
2019-05-26T02:20:08.257Z,37.38
2019-05-26T02:21:14.586Z,37.37
2019-05-26T02:22:13.964Z,37.38
2019-05-26T02:23:15.442Z,37.39
2019-05-26T02:24:16.832Z,37.41
2019-05-26T02:25:18.809Z,37.42
2019-05-26T02:26:20.206Z,37.45
2019-05-26T02:27:21.713Z,37.41
2019-05-26T02:28:23.117Z,37.39
2019-05-26T02:29:24.509Z,37.40
2019-05-26T02:30:26.071Z,37.40
2019-05-26T02:31:27.445Z,37.39
2019-05-26T02:32:28.888Z,37.39
2019-05-26T02:33:31.258Z,37.34
2019-05-26T02:34:32.666Z,37.34
2019-05-26T02:35:34.053Z,37.40
2019-05-26T02:36:35.452Z,37.39
2019-05-26T02:37:36.873Z,37.35
2019-05-26T02:38:57.379Z,37.36
2019-05-26T02:39:42.039Z,37.31
2019-05-26T02:40:43.428Z,37.29
2019-05-26T02:41:44.824Z,37.28
2019-05-26T02:42:46.263Z,37.27
2019-05-26T02:43:47.752Z,37.32
2019-05-26T02:44:49.160Z,37.34
2019-05-26T02:45:50.565Z,37.34
2019-05-26T02:46:51.938Z,37.37
2019-05-26T02:47:54.535Z,37.33
2019-05-26T02:48:55.940Z,37.40
2019-05-26T02:49:57.322Z,37.41
2019-05-26T02:50:58.709Z,37.46
2019-05-26T02:52:00.098Z,37.42
2019-05-26T02:53:01.600Z,37.45
2019-05-26T02:54:03.284Z,37.44
2019-05-26T02:55:05.194Z,37.45
2019-05-26T02:56:06.675Z,37.47
2019-05-26T02:57:08.054Z,37.44
2019-05-26T02:58:09.570Z,37.42
2019-05-26T02:59:11.070Z,37.45
2019-05-26T03:00:14.153Z,37.49
2019-05-26T03:01:15.605Z,37.46
2019-05-26T03:02:17.122Z,37.50
2019-05-26T03:03:19.474Z,37.44
2019-05-26T03:04:21.258Z,37.43
2019-05-26T03:05:22.667Z,37.48
2019-05-26T03:06:25.245Z,37.49
2019-05-26T03:07:27.443Z,37.54
2019-05-26T03:08:32.563Z,37.44
2019-05-26T03:09:37.176Z,37.42
2019-05-26T03:10:39.175Z,37.40
2019-05-26T03:11:42.982Z,37.44
2019-05-26T03:12:47.096Z,37.47
2019-05-26T03:13:49.274Z,37.45
2019-05-26T03:14:51.001Z,37.45
2019-05-26T03:15:54.804Z,37.44
2019-05-26T03:16:59.897Z,37.42
2019-05-26T03:18:06.222Z,37.45
2019-05-26T03:19:08.640Z,37.42
2019-05-26T03:20:13.618Z,37.37
2019-05-26T03:21:18.593Z,37.44
2019-05-26T03:22:21.805Z,37.39
2019-05-26T03:23:26.930Z,37.43
2019-05-26T03:24:28.443Z,37.44
2019-05-26T03:25:33.528Z,37.42
2019-05-26T03:26:34.925Z,37.46
2019-05-26T03:27:36.412Z,37.41
2019-05-26T03:28:37.908Z,37.41
2019-05-26T03:29:39.305Z,37.44
2019-05-26T03:30:40.697Z,37.37
2019-05-26T03:31:42.154Z,37.40
2019-05-26T03:32:43.577Z,37.46
2019-05-26T03:33:45.039Z,37.46
2019-05-26T03:34:46.450Z,37.42
2019-05-26T03:35:47.898Z,37.44
2019-05-26T03:36:50.374Z,37.43
2019-05-26T03:37:51.754Z,37.39
2019-05-26T03:38:53.138Z,37.44
2019-05-26T03:39:54.547Z,37.43
2019-05-26T03:40:56.031Z,37.46
2019-05-26T03:41:57.459Z,37.45
2019-05-26T03:42:58.829Z,37.46
2019-05-26T03:44:00.234Z,37.44
2019-05-26T03:45:01.930Z,37.44
2019-05-26T03:46:15.050Z,37.50
2019-05-26T03:47:17.109Z,37.44
2019-05-26T03:48:18.755Z,37.42
2019-05-26T03:49:20.127Z,37.46
2019-05-26T03:50:21.737Z,37.47
2019-05-26T03:51:23.109Z,37.50
2019-05-26T03:52:24.528Z,37.50
2019-05-26T03:53:25.894Z,37.54
2019-05-26T03:54:27.405Z,37.54
2019-05-26T03:55:28.907Z,37.54
2019-05-26T03:56:30.316Z,37.57
2019-05-26T03:57:31.790Z,37.61
2019-05-26T03:58:33.182Z,37.57
2019-05-26T03:59:34.668Z,37.60
2019-05-26T04:00:36.190Z,37.57
2019-05-26T04:01:37.593Z,37.60
2019-05-26T04:02:39.085Z,37.54
2019-05-26T04:03:40.639Z,37.52
2019-05-26T04:04:42.056Z,37.55
2019-05-26T04:05:43.501Z,37.58
2019-05-26T04:06:44.894Z,37.61
2019-05-26T04:07:46.394Z,37.60
2019-05-26T04:08:47.879Z,37.60
2019-05-26T04:10:03.997Z,37.53
2019-05-26T04:10:52.805Z,37.56
2019-05-26T04:11:54.210Z,37.55
2019-05-26T04:12:55.625Z,37.52
2019-05-26T04:13:57.142Z,37.52
2019-05-26T04:14:58.561Z,37.55
2019-05-26T04:16:01.243Z,37.51
2019-05-26T04:17:02.618Z,37.51
2019-05-26T04:18:04.119Z,37.46
2019-05-26T04:19:05.488Z,37.52
2019-05-26T04:20:07.492Z,37.52
2019-05-26T04:21:08.917Z,37.48
2019-05-26T04:22:10.323Z,37.52
2019-05-26T04:23:11.737Z,37.53
2019-05-26T04:24:13.154Z,37.49
2019-05-26T04:25:14.559Z,37.49
2019-05-26T04:26:15.962Z,37.48
2019-05-26T04:27:17.343Z,37.49
2019-05-26T04:28:19.845Z,37.48
2019-05-26T04:29:21.336Z,37.48
2019-05-26T04:30:22.749Z,37.45
2019-05-26T04:31:24.159Z,37.44
2019-05-26T04:32:25.563Z,37.42
2019-05-26T04:33:27.031Z,37.39
2019-05-26T04:34:28.404Z,37.42
2019-05-26T04:35:29.808Z,37.43
2019-05-26T04:36:31.382Z,37.46
2019-05-26T04:37:32.880Z,37.44
2019-05-26T04:38:34.278Z,37.42
2019-05-26T04:39:35.663Z,37.37
2019-05-26T04:40:37.053Z,37.42
2019-05-26T04:41:38.583Z,37.46
2019-05-26T04:42:39.970Z,37.44
2019-05-26T04:43:41.479Z,37.43
2019-05-26T04:44:42.866Z,37.42
2019-05-26T04:45:44.269Z,37.41
2019-05-26T04:46:45.684Z,37.43
2019-05-26T04:47:47.085Z,37.45
2019-05-26T04:48:48.477Z,37.45
2019-05-26T04:49:49.873Z,37.47
2019-05-26T04:50:51.253Z,37.47
2019-05-26T04:51:52.660Z,37.45
2019-05-26T04:53:06.176Z,37.45
2019-05-26T04:53:57.344Z,37.46
2019-05-26T04:54:58.941Z,37.49
2019-05-26T04:56:00.344Z,37.54
2019-05-26T04:57:01.758Z,37.53
2019-05-26T04:58:03.741Z,37.55
2019-05-26T04:59:05.134Z,37.57
2019-05-26T05:00:07.422Z,37.58
2019-05-26T05:01:08.920Z,37.59
2019-05-26T05:02:10.351Z,37.62
2019-05-26T05:03:11.726Z,37.61
2019-05-26T05:04:13.279Z,37.57
2019-05-26T05:05:14.987Z,37.61
2019-05-26T05:06:16.393Z,37.61
2019-05-26T05:07:17.995Z,37.61
2019-05-26T05:08:20.479Z,37.60
2019-05-26T05:09:21.870Z,37.57
2019-05-26T05:10:23.251Z,37.60
2019-05-26T05:11:24.952Z,37.61
2019-05-26T05:12:26.403Z,37.63
2019-05-26T05:13:27.782Z,37.62
2019-05-26T05:14:29.209Z,37.62
2019-05-26T05:15:30.617Z,37.62
2019-05-26T05:16:32.035Z,37.63
2019-05-26T05:17:33.561Z,37.60
2019-05-26T05:18:34.951Z,37.64
2019-05-26T05:19:36.469Z,37.62
2019-05-26T05:20:38.549Z,37.62
2019-05-26T05:21:39.945Z,37.63
2019-05-26T05:22:42.470Z,37.63
2019-05-26T05:23:43.886Z,37.60
2019-05-26T05:24:45.288Z,37.58
2019-05-26T05:25:47.038Z,37.60
2019-05-26T05:26:48.662Z,37.62
2019-05-26T05:27:50.616Z,37.62
2019-05-26T05:28:52.069Z,37.61
2019-05-26T05:29:53.463Z,37.64
2019-05-26T05:30:54.941Z,37.63
2019-05-26T05:31:56.496Z,37.64
2019-05-26T05:32:57.916Z,37.65
2019-05-26T05:33:59.303Z,37.60
2019-05-26T05:35:00.766Z,37.61
2019-05-26T05:36:02.246Z,37.62
2019-05-26T05:37:04.641Z,37.59
2019-05-26T05:38:06.070Z,37.54
2019-05-26T05:39:07.541Z,37.61
2019-05-26T05:40:09.457Z,37.61
2019-05-26T05:41:10.802Z,37.59
2019-05-26T05:42:12.181Z,37.51
2019-05-26T05:43:13.705Z,37.40
2019-05-26T05:44:16.972Z,37.26
2019-05-26T05:45:18.670Z,37.20
2019-05-26T05:46:20.041Z,37.21
2019-05-26T05:47:21.433Z,37.24
2019-05-26T05:48:22.934Z,37.25
2019-05-26T05:49:24.332Z,37.27
2019-05-26T05:50:25.720Z,37.31
2019-05-26T05:51:27.121Z,37.38
2019-05-26T05:52:28.508Z,37.43
2019-05-26T05:53:29.910Z,37.48
2019-05-26T05:54:31.386Z,37.48
2019-05-26T05:55:32.792Z,37.51
2019-05-26T05:56:34.164Z,37.55
2019-05-26T05:57:35.668Z,37.56
2019-05-26T05:58:37.185Z,37.57
2019-05-26T05:59:38.578Z,37.55
2019-05-26T06:00:40.075Z,37.60
2019-05-26T06:01:41.597Z,37.60
2019-05-26T06:02:44.820Z,37.61
2019-05-26T06:03:46.455Z,37.59
2019-05-26T06:04:47.841Z,37.59
2019-05-26T06:05:49.404Z,37.57
2019-05-26T06:06:50.930Z,37.60
2019-05-26T06:07:53.321Z,37.55
2019-05-26T06:08:54.830Z,37.47
2019-05-26T06:09:56.213Z,37.40
2019-05-26T06:10:57.620Z,37.37
2019-05-26T06:11:58.992Z,37.26
2019-05-26T06:13:01.389Z,37.20
2019-05-26T06:14:02.978Z,37.10
2019-05-26T06:15:11.440Z,37.04
2019-05-26T06:16:13.426Z,36.97
2019-05-26T06:17:14.842Z,36.82
2019-05-26T06:18:16.258Z,36.77
2019-05-26T06:19:17.997Z,36.69
2019-05-26T06:20:19.472Z,36.62
2019-05-26T06:21:20.870Z,36.52
2019-05-26T06:22:22.362Z,36.38
2019-05-26T06:23:23.760Z,36.28
2019-05-26T06:24:25.182Z,36.22
2019-05-26T06:25:26.606Z,36.14
2019-05-26T06:26:28.002Z,36.00
2019-05-26T06:27:29.435Z,35.91
2019-05-26T06:28:30.849Z,35.80
2019-05-26T06:29:32.388Z,35.67
2019-05-26T06:30:33.759Z,35.59
2019-05-26T06:31:35.171Z,35.48
2019-05-26T06:32:36.551Z,35.35
2019-05-26T06:33:38.119Z,35.22
2019-05-26T06:34:39.517Z,35.17
2019-05-26T06:35:40.915Z,35.05
2019-05-26T06:36:42.433Z,34.97
2019-05-26T06:37:43.810Z,34.90
2019-05-26T06:38:45.220Z,34.81
2019-05-26T06:39:46.633Z,34.75
2019-05-26T06:40:48.030Z,34.67
2019-05-26T06:41:49.416Z,34.60
2019-05-26T06:42:50.916Z,34.55
2019-05-26T06:43:52.407Z,34.51
2019-05-26T06:44:54.279Z,34.44
2019-05-26T06:45:55.722Z,34.40
2019-05-26T06:46:57.226Z,34.33
2019-05-26T06:47:59.143Z,34.22
2019-05-26T06:49:00.546Z,34.18
2019-05-26T06:50:05.265Z,34.12
2019-05-26T06:51:06.651Z,34.09
2019-05-26T06:52:08.039Z,34.06
2019-05-26T06:53:09.435Z,34.03
2019-05-26T06:54:10.837Z,34.04
2019-05-26T06:55:12.732Z,34.03
2019-05-26T06:56:14.111Z,33.99
2019-05-26T06:57:15.528Z,33.92
2019-05-26T06:58:16.894Z,33.92
2019-05-26T06:59:18.298Z,33.87
2019-05-26T07:00:20.244Z,33.91
2019-05-26T07:01:21.738Z,33.89
2019-05-26T07:02:23.125Z,33.86
2019-05-26T07:03:24.620Z,33.87
2019-05-26T07:04:26.254Z,33.84
2019-05-26T07:05:27.857Z,33.80
2019-05-26T07:06:29.577Z,33.81
2019-05-26T07:07:31.113Z,33.81
2019-05-26T07:08:32.477Z,33.75
2019-05-26T07:09:33.873Z,33.75
2019-05-26T07:10:35.469Z,33.72
2019-05-26T07:11:53.899Z,33.72
2019-05-26T07:12:40.148Z,33.75
2019-05-26T07:13:41.543Z,33.70
2019-05-26T07:14:43.032Z,33.72
2019-05-26T07:15:44.461Z,33.72
2019-05-26T07:16:45.950Z,33.71
2019-05-26T07:17:47.358Z,33.70
2019-05-26T07:18:49.738Z,33.70
2019-05-26T07:19:51.143Z,33.70
2019-05-26T07:20:52.553Z,33.74
2019-05-26T07:21:53.947Z,33.75
2019-05-26T07:22:55.330Z,33.68
2019-05-26T07:23:56.724Z,33.70
2019-05-26T07:24:58.214Z,33.70
2019-05-26T07:25:59.645Z,33.71
2019-05-26T07:27:01.038Z,33.71
2019-05-26T07:28:03.496Z,33.73
2019-05-26T07:29:04.907Z,33.73
2019-05-26T07:30:08.123Z,33.70
2019-05-26T07:31:09.550Z,33.63
2019-05-26T07:32:11.033Z,33.61
2019-05-26T07:33:12.427Z,33.59
2019-05-26T07:34:13.814Z,33.65
2019-05-26T07:35:15.414Z,33.67
2019-05-26T07:36:16.938Z,33.64
2019-05-26T07:37:18.331Z,33.63
2019-05-26T07:38:19.798Z,33.64
2019-05-26T07:39:21.172Z,33.58
2019-05-26T07:40:22.587Z,33.58
2019-05-26T07:41:24.190Z,33.57
2019-05-26T07:42:25.576Z,33.55
2019-05-26T07:43:28.207Z,33.56
2019-05-26T07:44:29.861Z,33.55
2019-05-26T07:45:31.253Z,33.56
2019-05-26T07:46:32.686Z,33.57
2019-05-26T07:47:34.061Z,33.56
2019-05-26T07:48:36.210Z,33.56
2019-05-26T07:49:37.756Z,33.59
2019-05-26T07:50:39.155Z,33.58
2019-05-26T07:51:40.668Z,33.58
2019-05-26T07:52:42.053Z,33.56
2019-05-26T07:53:43.444Z,33.56
2019-05-26T07:54:44.830Z,33.53
2019-05-26T07:55:46.224Z,33.52
2019-05-26T07:56:47.788Z,33.55
2019-05-26T07:57:49.276Z,33.56
2019-05-26T07:58:50.686Z,33.53
2019-05-26T07:59:52.069Z,33.52
2019-05-26T08:00:53.467Z,33.58
2019-05-26T08:01:54.990Z,33.61
2019-05-26T08:02:56.600Z,33.61
2019-05-26T08:03:58.008Z,33.64
2019-05-26T08:04:59.706Z,33.62
2019-05-26T08:06:01.108Z,33.66
2019-05-26T08:07:02.827Z,33.66
2019-05-26T08:08:12.635Z,33.66
2019-05-26T08:09:07.863Z,33.64
2019-05-26T08:10:09.633Z,33.61
2019-05-26T08:11:11.036Z,33.65
2019-05-26T08:12:25.035Z,33.67
2019-05-26T08:13:15.868Z,33.68
2019-05-26T08:14:17.391Z,33.69
2019-05-26T08:15:18.902Z,33.74
2019-05-26T08:16:20.304Z,33.71
2019-05-26T08:17:21.732Z,33.76
2019-05-26T08:18:23.109Z,33.76
2019-05-26T08:19:24.616Z,33.75
2019-05-26T08:20:26.090Z,33.79
2019-05-26T08:21:27.495Z,33.80
2019-05-26T08:22:29.036Z,33.79
2019-05-26T08:23:30.451Z,33.83
2019-05-26T08:24:31.861Z,33.83
2019-05-26T08:25:33.283Z,33.86
2019-05-26T08:26:34.692Z,33.83
2019-05-26T08:27:36.231Z,33.83
2019-05-26T08:28:37.604Z,33.79
2019-05-26T08:29:39.112Z,33.83
2019-05-26T08:30:40.490Z,33.85
2019-05-26T08:31:41.890Z,33.84
2019-05-26T08:32:43.284Z,33.80
2019-05-26T08:33:44.762Z,33.80
2019-05-26T08:34:46.209Z,33.81
2019-05-26T08:35:47.625Z,33.80
2019-05-26T08:36:49.041Z,33.83
2019-05-26T08:37:50.645Z,33.82
2019-05-26T08:38:52.025Z,33.80
2019-05-26T08:39:55.738Z,33.78
2019-05-26T08:40:57.138Z,33.78
2019-05-26T08:41:58.537Z,33.77
2019-05-26T08:43:00.101Z,33.77
2019-05-26T08:44:01.517Z,33.81
2019-05-26T08:45:04.624Z,33.76
2019-05-26T08:46:06.163Z,33.78
2019-05-26T08:47:07.569Z,33.78
2019-05-26T08:48:09.165Z,33.75
2019-05-26T08:49:10.545Z,33.78
2019-05-26T08:50:12.655Z,33.82
2019-05-26T08:51:14.031Z,33.77
2019-05-26T08:52:15.437Z,33.78
2019-05-26T08:53:16.968Z,33.75
2019-05-26T08:54:18.399Z,33.76
2019-05-26T08:55:21.513Z,33.76
2019-05-26T08:56:23.036Z,33.76
2019-05-26T08:57:24.441Z,33.77
2019-05-26T08:58:29.153Z,33.76
2019-05-26T08:59:29.340Z,33.76
2019-05-26T09:00:30.741Z,33.74
2019-05-26T09:01:32.112Z,33.75
2019-05-26T09:02:33.525Z,33.77
2019-05-26T09:03:34.957Z,33.82
2019-05-26T09:04:36.310Z,33.88
2019-05-26T09:05:37.744Z,33.83
2019-05-26T09:06:39.229Z,33.85
2019-05-26T09:07:40.737Z,33.89
2019-05-26T09:08:42.269Z,33.88
2019-05-26T09:09:43.666Z,33.90
2019-05-26T09:10:45.308Z,33.93
2019-05-26T09:11:46.757Z,33.92
2019-05-26T09:13:00.313Z,33.93
2019-05-26T09:13:51.625Z,33.94
2019-05-26T09:14:53.017Z,33.92
2019-05-26T09:15:54.404Z,33.94
2019-05-26T09:16:55.800Z,33.96
2019-05-26T09:17:57.298Z,33.88
2019-05-26T09:18:58.702Z,33.89
2019-05-26T09:20:00.153Z,33.94
2019-05-26T09:21:01.680Z,33.98
2019-05-26T09:22:03.266Z,33.97
2019-05-26T09:23:04.701Z,33.96
2019-05-26T09:24:06.087Z,33.95
2019-05-26T09:25:08.769Z,33.94
2019-05-26T09:26:10.156Z,33.97
2019-05-26T09:27:11.548Z,34.00
2019-05-26T09:28:12.932Z,34.01
2019-05-26T09:29:14.570Z,34.01
2019-05-26T09:30:16.348Z,34.00
2019-05-26T09:31:17.779Z,34.02
2019-05-26T09:32:19.151Z,33.98
2019-05-26T09:33:20.558Z,34.00
2019-05-26T09:34:21.977Z,33.99
2019-05-26T09:35:23.475Z,33.99
2019-05-26T09:36:24.859Z,33.99
2019-05-26T09:37:26.258Z,33.99
2019-05-26T09:38:27.653Z,34.07
2019-05-26T09:39:29.289Z,34.07
2019-05-26T09:40:30.682Z,34.09
2019-05-26T09:41:32.140Z,34.11
2019-05-26T09:42:33.512Z,34.08
2019-05-26T09:43:34.915Z,34.03
2019-05-26T09:44:36.488Z,33.98
2019-05-26T09:45:37.984Z,33.93
2019-05-26T09:46:39.477Z,33.96
2019-05-26T09:47:40.875Z,33.95
2019-05-26T09:48:42.266Z,33.91
2019-05-26T09:49:43.897Z,33.89
2019-05-26T09:50:45.269Z,33.90
2019-05-26T09:51:46.676Z,33.87
2019-05-26T09:52:48.189Z,33.87
2019-05-26T09:54:01.308Z,33.84
2019-05-26T09:54:52.924Z,33.83
2019-05-26T09:55:54.317Z,33.82
2019-05-26T09:56:55.712Z,33.83
2019-05-26T09:57:57.084Z,33.85
2019-05-26T09:58:58.476Z,33.85
2019-05-26T09:59:59.888Z,33.79
2019-05-26T10:01:01.413Z,33.80
2019-05-26T10:02:03.417Z,33.79
2019-05-26T10:03:04.821Z,33.81
2019-05-26T10:04:06.252Z,33.84
2019-05-26T10:05:08.075Z,33.85
2019-05-26T10:06:09.510Z,33.88
2019-05-26T10:07:15.437Z,33.88
2019-05-26T10:08:14.320Z,33.88
2019-05-26T10:09:15.875Z,33.88
2019-05-26T10:10:17.366Z,33.88
2019-05-26T10:11:18.862Z,33.87
2019-05-26T10:12:20.459Z,33.89
2019-05-26T10:13:31.261Z,33.90
2019-05-26T10:14:25.644Z,33.90
2019-05-26T10:15:27.030Z,33.91
2019-05-26T10:16:28.453Z,33.93
2019-05-26T10:17:30.864Z,33.91
2019-05-26T10:18:32.277Z,33.93
2019-05-26T10:19:33.787Z,33.94
2019-05-26T10:20:35.193Z,33.94
2019-05-26T10:21:36.675Z,34.04
2019-05-26T10:22:38.085Z,34.09
2019-05-26T10:23:39.574Z,34.14
2019-05-26T10:24:40.977Z,34.16
2019-05-26T10:25:42.397Z,34.17
2019-05-26T10:26:43.811Z,34.22
2019-05-26T10:27:45.217Z,34.18
2019-05-26T10:28:46.745Z,34.17
2019-05-26T10:29:48.157Z,34.21
2019-05-26T10:30:49.599Z,34.21
2019-05-26T10:31:50.974Z,34.21
2019-05-26T10:32:52.402Z,34.12
2019-05-26T10:33:53.763Z,34.09
2019-05-26T10:34:55.168Z,34.04
2019-05-26T10:35:56.723Z,33.99
2019-05-26T10:36:58.145Z,33.97
2019-05-26T10:37:59.556Z,34.00
2019-05-26T10:39:02.875Z,33.94
2019-05-26T10:40:05.483Z,33.94
2019-05-26T10:41:06.914Z,33.94
2019-05-26T10:42:08.318Z,33.87
2019-05-26T10:43:09.767Z,33.86
2019-05-26T10:44:12.144Z,33.84
2019-05-26T10:45:14.348Z,33.81
2019-05-26T10:46:15.948Z,33.76
2019-05-26T10:47:17.363Z,33.76
2019-05-26T10:48:18.769Z,33.73
2019-05-26T10:49:20.180Z,33.74
2019-05-26T10:50:21.587Z,33.74
2019-05-26T10:51:23.020Z,33.65
2019-05-26T10:52:24.399Z,33.64
2019-05-26T10:53:25.797Z,33.68
2019-05-26T10:54:27.172Z,33.64
2019-05-26T10:55:28.678Z,33.66
2019-05-26T10:56:30.100Z,33.62
2019-05-26T10:57:31.614Z,33.67
2019-05-26T10:58:33.034Z,33.77
2019-05-26T10:59:34.454Z,33.80
2019-05-26T11:00:35.965Z,33.90
2019-05-26T11:01:37.561Z,33.90
2019-05-26T11:02:38.934Z,33.93
2019-05-26T11:03:40.340Z,33.85
2019-05-26T11:04:42.723Z,33.77
2019-05-26T11:05:44.126Z,33.78
2019-05-26T11:06:45.597Z,33.90
2019-05-26T11:07:47.004Z,33.78
2019-05-26T11:08:48.403Z,33.68
2019-05-26T11:09:49.827Z,33.45
2019-05-26T11:10:51.234Z,33.36
2019-05-26T11:11:52.636Z,33.33
2019-05-26T11:12:54.014Z,33.30
2019-05-26T11:14:03.013Z,33.28
2019-05-26T11:14:58.767Z,33.29
2019-05-26T11:16:00.182Z,33.23
2019-05-26T11:17:01.740Z,33.22
2019-05-26T11:18:03.565Z,33.18
2019-05-26T11:19:04.968Z,33.19
2019-05-26T11:20:07.281Z,33.19
2019-05-26T11:21:12.103Z,33.15
2019-05-26T11:22:12.005Z,33.17
2019-05-26T11:23:13.384Z,33.16
2019-05-26T11:24:14.788Z,33.18
2019-05-26T11:25:16.274Z,33.15
2019-05-26T11:26:17.685Z,33.18
2019-05-26T11:27:19.212Z,33.21
2019-05-26T11:28:20.627Z,33.24
2019-05-26T11:29:22.046Z,33.26
2019-05-26T11:30:23.867Z,33.22
2019-05-26T11:31:25.558Z,33.24
2019-05-26T11:32:27.190Z,33.19
2019-05-26T11:33:28.537Z,33.19
2019-05-26T11:34:30.040Z,33.24
2019-05-26T11:35:31.421Z,33.30
2019-05-26T11:36:32.827Z,33.32
2019-05-26T11:37:34.272Z,33.25
2019-05-26T11:38:35.684Z,33.25
2019-05-26T11:39:37.095Z,33.25
2019-05-26T11:40:38.510Z,33.22
2019-05-26T11:41:39.954Z,33.22
2019-05-26T11:42:44.636Z,33.21
2019-05-26T11:43:44.824Z,33.22
2019-05-26T11:44:46.416Z,33.20
2019-05-26T11:45:47.898Z,33.15
2019-05-26T11:46:49.401Z,33.20
2019-05-26T11:47:50.792Z,33.11
2019-05-26T11:48:52.371Z,33.08
2019-05-26T11:49:53.795Z,33.06
2019-05-26T11:50:55.313Z,33.03
2019-05-26T11:51:56.725Z,33.03
2019-05-26T11:52:58.181Z,33.02
2019-05-26T11:53:59.601Z,33.03
2019-05-26T11:55:00.959Z,33.08
2019-05-26T11:56:02.338Z,33.07
2019-05-26T11:57:03.741Z,33.06
2019-05-26T11:58:05.152Z,33.08
2019-05-26T11:59:06.568Z,33.08
2019-05-26T12:00:10.530Z,33.07
2019-05-26T12:01:12.387Z,33.09
2019-05-26T12:02:13.808Z,33.09
2019-05-26T12:03:15.216Z,33.11
2019-05-26T12:04:16.700Z,33.13
2019-05-26T12:05:18.222Z,33.14
2019-05-26T12:06:19.577Z,33.13
2019-05-26T12:07:21.021Z,33.16
2019-05-26T12:08:22.401Z,33.23
2019-05-26T12:09:23.826Z,33.26
2019-05-26T12:10:25.242Z,33.26
2019-05-26T12:11:26.666Z,33.27
2019-05-26T12:12:28.198Z,33.29
2019-05-26T12:13:29.794Z,33.33
2019-05-26T12:14:35.249Z,33.39
2019-05-26T12:15:35.572Z,33.39
2019-05-26T12:16:36.954Z,33.43
2019-05-26T12:17:38.375Z,33.46
2019-05-26T12:18:39.793Z,33.50
2019-05-26T12:19:41.203Z,33.50
2019-05-26T12:20:42.714Z,33.48
2019-05-26T12:21:44.205Z,33.49
2019-05-26T12:23:46.966Z,33.46
2019-05-26T12:24:48.376Z,33.41
2019-05-26T12:25:49.785Z,33.44
2019-05-26T12:26:51.218Z,33.40
2019-05-26T12:27:52.653Z,33.40
2019-05-26T12:28:54.104Z,33.43
2019-05-26T12:29:55.487Z,33.45
2019-05-26T12:30:56.884Z,33.46
2019-05-26T12:31:58.263Z,33.44
2019-05-26T12:32:59.672Z,33.46
2019-05-26T12:34:01.234Z,33.46
2019-05-26T12:35:08.324Z,33.48
2019-05-26T12:36:09.737Z,33.52
2019-05-26T12:37:11.144Z,33.48
2019-05-26T12:38:12.957Z,33.48
2019-05-26T12:39:14.355Z,33.56
2019-05-26T12:40:16.038Z,33.57
2019-05-26T12:41:18.636Z,33.63
2019-05-26T12:42:20.020Z,33.61
2019-05-26T12:43:21.522Z,33.64
2019-05-26T12:44:23.057Z,33.63
2019-05-26T12:45:24.545Z,33.69
2019-05-26T12:46:26.121Z,33.68
2019-05-26T12:47:27.508Z,33.73
2019-05-26T12:48:28.905Z,33.67
2019-05-26T12:49:30.427Z,33.69
2019-05-26T12:50:31.809Z,33.75
2019-05-26T12:51:33.221Z,33.72
2019-05-26T12:52:34.602Z,33.71
2019-05-26T12:53:35.992Z,33.72
2019-05-26T12:54:37.575Z,33.74
2019-05-26T12:55:38.957Z,33.78
2019-05-26T12:56:41.567Z,33.82
2019-05-26T12:57:42.949Z,33.80
2019-05-26T12:58:44.350Z,33.80
2019-05-26T12:59:45.912Z,33.84
2019-05-26T13:00:50.746Z,33.87
2019-05-26T13:01:50.813Z,33.83
2019-05-26T13:02:52.252Z,33.84
2019-05-26T13:03:53.813Z,33.83
2019-05-26T13:04:55.266Z,33.77
2019-05-26T13:05:57.658Z,33.79
2019-05-26T13:06:59.078Z,33.83
2019-05-26T13:08:01.599Z,33.86
2019-05-26T13:09:06.601Z,33.81
2019-05-26T13:10:08.755Z,33.82
2019-05-26T13:11:10.261Z,33.79
2019-05-26T13:12:11.649Z,33.80
2019-05-26T13:13:13.037Z,33.84
2019-05-26T13:14:14.434Z,33.84
2019-05-26T13:15:16.519Z,33.79